Time;durP1;ratioP1;P1;durP2;ratioP2;P2;SDS_P1;SDS_P2;PMS_P1;PMS_P2;Temp;Humidity;BMP_temperature;BMP_pressure;BME280_temperature;BME280_humidity;BME280_pressure;Samples;Min_cycle;Max_cycle;Signal;HPM_P1;HPM_P2
2023/01/04 00:01:23;;;;;;;28.77;20.10;;;11.90;99.90;;;;;;5080615;28;20055;-74
2023/01/04 00:03:50;;;;;;;35.30;20.70;;;11.90;99.90;;;;;;5076650;28;20126;-74
2023/01/04 00:06:19;;;;;;;38.92;20.27;;;11.90;99.90;;;;;;5080244;28;20053;-73
2023/01/04 00:08:47;;;;;;;29.23;18.13;;;11.90;99.90;;;;;;5081284;28;20040;-75
2023/01/04 00:11:17;;;;;;;30.08;18.08;;;11.90;99.90;;;;;;5082435;28;20047;-74
2023/01/04 00:13:47;;;;;;;31.35;18.98;;;11.90;99.90;;;;;;5077079;28;20768;-73
2023/01/04 00:16:20;;;;;;;30.48;18.80;;;11.90;99.90;;;;;;5080438;28;20046;-73
2023/01/04 00:18:48;;;;;;;29.27;18.58;;;11.90;99.90;;;;;;5082732;28;20047;-74
2023/01/04 00:21:21;;;;;;;30.20;17.80;;;11.90;99.90;;;;;;5074180;28;20048;-73
2023/01/04 00:23:51;;;;;;;26.58;17.77;;;12.00;99.90;;;;;;5078867;28;20036;-74
2023/01/04 00:26:22;;;;;;;29.02;17.27;;;11.90;99.90;;;;;;5088630;28;20841;-74
2023/01/04 00:28:58;;;;;;;26.90;16.50;;;11.90;99.90;;;;;;5094226;28;20139;-73
2023/01/04 00:31:27;;;;;;;30.38;17.38;;;11.90;99.90;;;;;;5067901;28;20076;-73
2023/01/04 00:33:57;;;;;;;27.70;20.05;;;11.90;99.90;;;;;;5093883;28;20134;-73
2023/01/04 00:36:25;;;;;;;30.67;17.70;;;12.00;99.90;;;;;;5085091;28;20615;-73
2023/01/04 00:39:09;;;;;;;30.92;21.25;;;11.90;99.90;;;;;;5073550;28;20123;-73
2023/01/04 00:41:51;;;;;;;29.02;19.10;;;11.90;99.90;;;;;;5085470;28;20043;-73
2023/01/04 00:44:28;;;;;;;31.52;21.05;;;11.80;99.90;;;;;;5094322;28;20047;-73
2023/01/04 00:46:56;;;;;;;37.13;22.08;;;11.80;99.90;;;;;;5079869;28;20048;-73
2023/01/04 00:49:25;;;;;;;32.85;20.77;;;11.80;99.90;;;;;;5095866;28;20057;-73
2023/01/04 00:51:52;;;;;;;31.10;21.23;;;11.80;99.90;;;;;;5094965;28;20067;-73
2023/01/04 00:54:21;;;;;;;35.72;22.00;;;11.80;99.90;;;;;;5102866;28;20405;-73
2023/01/04 00:56:49;;;;;;;31.55;19.13;;;11.80;99.90;;;;;;5088818;28;20781;-74
2023/01/04 00:59:18;;;;;;;39.42;21.88;;;11.80;99.90;;;;;;5086762;28;20039;-73
2023/01/04 01:01:46;;;;;;;28.23;18.42;;;11.80;99.90;;;;;;5102991;28;20143;-73
2023/01/04 01:04:16;;;;;;;32.90;19.92;;;11.80;99.90;;;;;;5091741;28;20386;-72
2023/01/04 01:06:43;;;;;;;29.80;19.23;;;11.70;99.90;;;;;;5078161;28;20059;-72
2023/01/04 01:09:12;;;;;;;28.95;20.33;;;11.80;99.90;;;;;;5094048;28;20032;-72
2023/01/04 01:11:40;;;;;;;33.10;21.23;;;11.80;99.90;;;;;;5086636;28;20115;-72
2023/01/04 01:14:16;;;;;;;30.08;20.27;;;11.70;99.90;;;;;;5079566;28;20451;-72
2023/01/04 01:16:44;;;;;;;34.90;19.48;;;11.70;99.90;;;;;;5079593;28;20085;-72
2023/01/04 01:19:21;;;;;;;33.90;19.45;;;11.70;99.90;;;;;;5082788;28;20155;-73
2023/01/04 01:21:48;;;;;;;37.67;20.35;;;11.70;99.90;;;;;;5103164;28;20058;-72
2023/01/04 01:24:17;;;;;;;29.45;19.63;;;11.70;99.90;;;;;;5085655;28;20042;-72
2023/01/04 01:26:46;;;;;;;30.42;19.55;;;11.60;99.90;;;;;;5095830;28;20039;-72
2023/01/04 01:29:13;;;;;;;32.08;19.55;;;11.60;99.90;;;;;;5091961;28;20040;-72
2023/01/04 01:31:41;;;;;;;28.70;19.35;;;11.50;99.90;;;;;;5077908;28;20053;-72
2023/01/04 01:34:09;;;;;;;31.73;19.00;;;11.50;99.90;;;;;;5104117;28;20645;-73
2023/01/04 01:36:36;;;;;;;31.00;18.63;;;11.40;99.90;;;;;;5088435;28;20044;-72
2023/01/04 01:39:05;;;;;;;31.75;20.58;;;11.40;99.90;;;;;;5106355;28;20043;-73
2023/01/04 01:41:34;;;;;;;31.95;19.70;;;11.30;99.90;;;;;;5104278;28;20709;-72
2023/01/04 01:44:24;;;;;;;31.48;18.70;;;11.30;99.90;;;;;;5099487;28;20075;-73
2023/01/04 01:46:53;;;;;;;32.92;19.23;;;11.30;99.90;;;;;;5092871;28;20039;-73
2023/01/04 01:49:34;;;;;;;29.20;19.85;;;11.30;99.90;;;;;;5090820;28;20049;-73
2023/01/04 01:52:05;;;;;;;32.00;19.13;;;11.20;99.90;;;;;;5086534;28;20780;-73
2023/01/04 01:54:38;;;;;;;32.33;22.15;;;11.30;99.90;;;;;;5094818;28;20040;-73
2023/01/04 01:57:09;;;;;;;34.33;20.73;;;11.30;99.90;;;;;;5101353;28;20043;-73
2023/01/04 01:59:41;;;;;;;33.65;18.92;;;11.30;99.90;;;;;;5070993;28;20150;-72
2023/01/04 02:02:10;;;;;;;33.88;20.05;;;11.40;99.90;;;;;;5091549;28;20154;-73
2023/01/04 02:04:42;;;;;;;35.08;23.70;;;11.40;99.90;;;;;;5075712;28;20131;-72
2023/01/04 02:07:12;;;;;;;31.65;20.00;;;11.40;99.90;;;;;;5095956;28;20048;-73
2023/01/04 02:09:40;;;;;;;32.70;17.20;;;11.40;99.90;;;;;;5088397;28;20039;-73
2023/01/04 02:12:11;;;;;;;29.98;18.52;;;11.40;99.90;;;;;;5090725;28;20039;-72
2023/01/04 02:14:43;;;;;;;32.22;19.08;;;11.40;99.90;;;;;;5074684;28;20104;-72
2023/01/04 02:17:10;;;;;;;31.17;18.02;;;11.40;99.90;;;;;;5094870;28;20502;-73
2023/01/04 02:19:46;;;;;;;33.78;19.38;;;11.40;99.90;;;;;;5095623;27;20067;-73
2023/01/04 02:22:32;;;;;;;;;;;11.40;99.90;;;;;;5094688;28;20107;-72
2023/01/04 02:25:15;;;;;;;25.10;16.55;;;11.40;99.90;;;;;;5089417;28;20237;-73
2023/01/04 02:28:01;;;;;;;29.27;17.77;;;11.40;99.90;;;;;;5079421;28;20048;-73
2023/01/04 02:30:43;;;;;;;35.53;19.85;;;11.40;99.90;;;;;;5087208;28;20101;-73
2023/01/04 02:33:29;;;;;;;35.22;18.67;;;11.40;99.90;;;;;;5081427;28;20084;-73
2023/01/04 02:36:45;;;;;;;25.08;17.17;;;11.40;99.90;;;;;;5084665;28;20811;-73
2023/01/04 02:39:34;;;;;;;24.52;17.48;;;11.40;99.90;;;;;;5075321;28;20039;-74
2023/01/04 02:44:51;;;;;;;30.13;18.67;;;11.40;99.90;;;;;;5082605;28;20052;-73
2023/01/04 02:45:18;;;;;;;31.30;18.73;;;11.40;99.90;;;;;;5094012;28;20047;-74
2023/01/04 02:50:36;;;;;;;30.02;19.42;;;11.30;99.90;;;;;;5087286;28;20055;-73
2023/01/04 02:53:11;;;;;;;31.45;17.13;;;11.30;99.90;;;;;;5087333;28;20043;-74
2023/01/04 02:55:42;;;;;;;29.23;20.02;;;11.30;99.90;;;;;;5078223;28;20481;-73
2023/01/04 02:58:15;;;;;;;25.73;18.40;;;11.30;99.90;;;;;;5082206;28;20135;-73
2023/01/04 03:07:17;;;;;;;28.37;16.53;;;11.30;99.90;;;;;;5089756;28;20048;-74
2023/01/04 03:09:48;;;;;;;29.40;17.85;;;11.30;99.90;;;;;;5090219;28;20063;-74
2023/01/04 03:12:31;;;;;;;27.17;19.00;;;11.30;99.90;;;;;;5079400;28;20044;-74
2023/01/04 03:15:06;;;;;;;35.70;19.77;;;11.30;99.90;;;;;;5083782;28;20453;-74
2023/01/04 03:17:43;;;;;;;26.45;18.00;;;11.30;99.90;;;;;;5074191;28;20040;-74
2023/01/04 03:20:12;;;;;;;27.08;16.60;;;11.30;99.90;;;;;;5082093;28;20600;-74
2023/01/04 03:37:21;;;;;;;26.77;16.85;;;11.30;99.90;;;;;;5089261;28;20050;-74
2023/01/04 03:49:22;;;;;;;28.35;17.20;;;11.20;99.90;;;;;;5088391;28;20040;-74
2023/01/04 03:51:52;;;;;;;24.85;15.80;;;11.20;99.90;;;;;;5082935;28;20059;-74
2023/01/04 03:54:32;;;;;;;26.50;16.13;;;11.20;99.90;;;;;;5073547;28;20808;-73
2023/01/04 03:57:00;;;;;;;26.10;16.40;;;11.20;99.90;;;;;;5071762;28;20799;-73
2023/01/04 03:59:28;;;;;;;26.05;16.17;;;11.10;99.90;;;;;;5088185;28;20055;-74
2023/01/04 04:01:56;;;;;;;26.35;15.65;;;11.10;99.90;;;;;;5081832;28;20056;-74
2023/01/04 04:09:55;;;;;;;27.95;17.00;;;11.00;99.90;;;;;;5087095;28;20515;-73
2023/01/04 04:12:22;;;;;;;28.63;16.77;;;10.90;99.90;;;;;;5078720;28;20040;-74
2023/01/04 04:14:50;;;;;;;26.88;15.52;;;10.90;99.90;;;;;;5075678;28;20054;-74
2023/01/04 04:17:17;;;;;;;28.48;15.98;;;10.90;99.90;;;;;;5088632;28;20048;-74
2023/01/04 04:19:45;;;;;;;27.70;16.30;;;10.90;99.90;;;;;;5084292;28;20036;-74
2023/01/04 04:22:12;;;;;;;25.00;16.73;;;11.00;99.90;;;;;;5068380;28;20526;-73
2023/01/04 04:24:39;;;;;;;33.38;15.73;;;11.00;99.90;;;;;;5074331;28;20406;-74
2023/01/04 04:27:07;;;;;;;30.52;17.13;;;11.00;99.90;;;;;;5070115;28;20078;-74
2023/01/04 04:29:34;;;;;;;25.80;15.10;;;11.10;99.90;;;;;;5087785;28;20040;-74
2023/01/04 04:32:02;;;;;;;28.73;17.13;;;11.10;99.90;;;;;;5087503;28;20498;-74
2023/01/04 04:34:29;;;;;;;28.23;15.25;;;11.10;99.90;;;;;;5081938;28;20516;-74
2023/01/04 04:36:57;;;;;;;27.65;14.98;;;11.00;99.90;;;;;;5077902;28;20068;-74
2023/01/04 04:39:25;;;;;;;22.70;15.00;;;11.00;99.90;;;;;;5079128;28;20052;-74
2023/01/04 04:41:52;;;;;;;27.40;15.85;;;11.00;99.90;;;;;;5087528;28;20060;-74
2023/01/04 04:44:20;;;;;;;22.40;14.45;;;11.10;99.90;;;;;;5080598;28;20843;-74
2023/01/04 04:46:48;;;;;;;26.23;15.63;;;11.00;99.90;;;;;;5066910;28;20044;-74
2023/01/04 04:49:16;;;;;;;25.20;14.55;;;11.00;99.90;;;;;;5075395;28;20051;-74
2023/01/04 04:51:45;;;;;;;26.52;14.68;;;11.00;99.90;;;;;;5060030;28;20048;-74
2023/01/04 04:54:18;;;;;;;30.25;15.18;;;11.10;99.90;;;;;;5085513;28;20044;-74
2023/01/04 04:56:46;;;;;;;22.10;14.07;;;11.00;99.90;;;;;;5081609;28;20052;-74
2023/01/04 04:59:14;;;;;;;27.58;15.15;;;11.00;99.90;;;;;;5076440;28;20393;-73
2023/01/04 05:01:42;;;;;;;26.42;14.35;;;11.00;99.90;;;;;;5079120;28;20464;-73
2023/01/04 05:04:15;;;;;;;24.10;15.18;;;11.00;99.90;;;;;;5079857;28;20044;-74
2023/01/04 05:06:43;;;;;;;23.67;15.23;;;11.00;99.90;;;;;;5080796;28;20043;-74
2023/01/04 05:09:12;;;;;;;24.88;15.07;;;11.00;99.90;;;;;;5079133;28;20044;-74
2023/01/04 05:14:26;;;;;;;;;;;11.00;99.90;;;;;;5077414;28;20063;-74
2023/01/04 05:16:54;;;;;;;21.95;14.50;;;11.00;99.90;;;;;;5085131;28;19931;-74
2023/01/04 05:19:21;;;;;;;23.48;14.07;;;11.00;99.90;;;;;;5080811;28;20106;-74
2023/01/04 05:21:49;;;;;;;23.08;14.63;;;11.00;99.90;;;;;;5079807;28;20054;-74
2023/01/04 05:24:16;;;;;;;19.55;14.20;;;11.00;99.90;;;;;;5090483;28;20044;-73
2023/01/04 05:26:43;;;;;;;23.30;15.27;;;11.00;99.90;;;;;;5084379;28;20071;-74
2023/01/04 05:30:49;;;;;;;21.55;13.95;;;11.00;99.90;;;;;;5079302;28;20043;-74
2023/01/04 05:31:58;;;;;;;23.80;12.93;;;11.00;99.90;;;;;;5090406;28;20142;-74
2023/01/04 05:34:26;;;;;;;19.10;12.38;;;11.00;99.90;;;;;;5091007;28;20394;-74
2023/01/04 05:36:53;;;;;;;21.75;13.07;;;11.00;99.90;;;;;;5090743;28;20135;-74
2023/01/04 05:39:21;;;;;;;21.85;14.02;;;11.00;99.90;;;;;;5089940;28;20123;-74
2023/01/04 05:44:34;;;;;;;20.00;13.35;;;11.00;99.90;;;;;;5085210;28;20697;-74
2023/01/04 05:47:02;;;;;;;23.30;12.90;;;11.00;99.90;;;;;;5066569;28;20120;-74
2023/01/04 05:49:29;;;;;;;23.75;14.45;;;11.00;99.90;;;;;;5079451;28;20052;-74
2023/01/04 05:51:56;;;;;;;20.02;13.32;;;11.00;99.90;;;;;;5088294;28;20056;-74
2023/01/04 05:54:24;;;;;;;21.20;13.65;;;11.00;99.90;;;;;;5084412;28;20028;-74
2023/01/04 05:56:51;;;;;;;17.38;11.52;;;11.00;99.90;;;;;;5073465;28;20578;-74
2023/01/04 05:59:19;;;;;;;21.35;11.60;;;11.00;99.90;;;;;;5087032;28;20051;-74
2023/01/04 06:01:46;;;;;;;18.95;12.07;;;11.00;99.90;;;;;;5080070;28;20209;-73
2023/01/04 06:04:13;;;;;;;19.42;12.18;;;11.00;99.90;;;;;;5045510;28;20044;-74
2023/01/04 06:06:41;;;;;;;20.77;13.63;;;11.00;99.90;;;;;;5089675;28;20081;-73
2023/01/04 06:09:08;;;;;;;22.20;10.88;;;11.00;99.90;;;;;;5090154;28;20093;-74
2023/01/04 06:11:36;;;;;;;20.20;11.88;;;10.90;99.90;;;;;;5079489;28;20048;-74
2023/01/04 06:14:04;;;;;;;17.77;11.80;;;10.90;99.90;;;;;;5076047;28;20056;-74
2023/01/04 06:16:31;;;;;;;20.15;12.07;;;11.00;99.90;;;;;;5056157;28;20048;-74
2023/01/04 06:18:59;;;;;;;14.32;9.88;;;11.00;99.90;;;;;;5080275;28;20117;-73
2023/01/04 06:21:27;;;;;;;16.50;10.40;;;11.00;99.90;;;;;;5090743;28;20048;-74
2023/01/04 06:23:54;;;;;;;21.88;12.45;;;11.00;99.90;;;;;;5090762;28;20087;-74
2023/01/04 06:26:22;;;;;;;18.15;11.65;;;11.10;99.90;;;;;;5090696;28;20078;-74
2023/01/04 06:28:49;;;;;;;17.77;11.05;;;11.20;99.90;;;;;;5090947;28;20059;-74
2023/01/04 06:31:17;;;;;;;20.92;11.82;;;11.40;99.90;;;;;;5089586;28;20052;-74
2023/01/04 06:33:44;;;;;;;20.17;11.27;;;11.70;99.90;;;;;;5088529;28;20060;-73
2023/01/04 06:36:12;;;;;;;17.83;12.20;;;12.00;99.90;;;;;;5071931;28;20402;-74
2023/01/04 06:38:39;;;;;;;19.80;12.77;;;12.30;99.90;;;;;;5076069;28;20477;-77
2023/01/04 06:41:07;;;;;;;19.38;12.80;;;12.60;99.90;;;;;;5076783;28;20482;-77
2023/01/04 06:43:34;;;;;;;16.45;11.85;;;13.10;99.90;;;;;;5071802;28;20071;-77
2023/01/04 06:46:02;;;;;;;17.48;12.05;;;13.50;99.90;;;;;;5073954;28;20060;-77
2023/01/04 06:48:30;;;;;;;15.48;9.60;;;13.80;99.90;;;;;;5079086;28;20183;-77
2023/01/04 06:50:57;;;;;;;16.52;10.40;;;14.20;99.90;;;;;;5087836;28;20047;-77
2023/01/04 06:53:25;;;;;;;13.32;9.90;;;14.60;99.90;;;;;;5068827;28;20049;-77
2023/01/04 06:55:52;;;;;;;17.20;11.05;;;14.70;99.90;;;;;;5081349;28;20130;-77
2023/01/04 06:58:20;;;;;;;18.15;12.60;;;14.30;99.90;;;;;;5083667;28;20048;-77
2023/01/04 07:00:53;;;;;;;19.63;10.55;;;13.80;99.90;;;;;;5088812;28;20051;-78
2023/01/04 07:03:21;;;;;;;17.52;11.43;;;13.40;99.90;;;;;;5077269;28;20503;-77
2023/01/04 07:05:48;;;;;;;13.82;9.52;;;13.10;99.90;;;;;;5089948;28;20064;-77
2023/01/04 07:08:16;;;;;;;15.13;9.68;;;12.80;99.90;;;;;;5088773;28;20117;-77
2023/01/04 07:10:43;;;;;;;13.77;10.68;;;12.60;99.90;;;;;;5089995;28;20556;-78
2023/01/04 07:13:11;;;;;;;16.88;10.50;;;12.40;99.90;;;;;;5086544;28;20394;-78
2023/01/04 07:15:39;;;;;;;19.63;10.38;;;12.30;99.90;;;;;;5089086;28;20043;-78
2023/01/04 07:18:10;;;;;;;17.42;11.90;;;12.30;99.90;;;;;;5089437;28;20494;-77
2023/01/04 07:20:38;;;;;;;17.88;11.32;;;12.20;99.90;;;;;;5089835;28;20131;-77
2023/01/04 07:23:07;;;;;;;17.42;11.52;;;12.10;99.90;;;;;;5088613;28;20044;-78
2023/01/04 07:25:35;;;;;;;16.13;10.85;;;12.10;99.90;;;;;;5088448;28;20466;-77
2023/01/04 07:28:02;;;;;;;17.63;10.13;;;12.10;99.90;;;;;;5088203;28;20126;-77
2023/01/04 07:30:30;;;;;;;18.30;10.27;;;12.10;99.90;;;;;;5087822;28;20135;-77
2023/01/04 07:32:57;;;;;;;20.05;11.27;;;12.10;99.90;;;;;;5089494;28;20105;-77
2023/01/04 07:35:25;;;;;;;19.52;11.93;;;12.00;99.90;;;;;;5089431;28;20502;-77
2023/01/04 07:37:53;;;;;;;19.25;11.60;;;12.10;99.90;;;;;;5089889;28;20098;-78
2023/01/04 07:40:25;;;;;;;17.10;10.57;;;12.10;99.90;;;;;;5089023;28;20159;-77
2023/01/04 07:42:56;;;;;;;16.77;10.30;;;12.10;99.90;;;;;;5083975;28;20133;-77
2023/01/04 07:45:25;;;;;;;15.48;9.85;;;12.10;99.90;;;;;;5079046;28;20046;-77
2023/01/04 07:47:52;;;;;;;19.92;10.93;;;12.20;99.90;;;;;;5054874;28;20135;-78
2023/01/04 07:50:20;;;;;;;19.52;11.77;;;12.20;99.90;;;;;;5089000;28;20565;-77
2023/01/04 07:52:48;;;;;;;19.85;12.07;;;12.20;99.90;;;;;;5089480;28;20489;-77
2023/01/04 07:55:15;;;;;;;17.27;11.55;;;12.30;99.90;;;;;;5085898;28;20044;-77
2023/01/04 07:57:43;;;;;;;15.88;10.65;;;12.30;99.90;;;;;;5088959;28;20048;-77
2023/01/04 08:00:11;;;;;;;15.23;10.13;;;12.40;99.90;;;;;;5067277;28;20135;-77
2023/01/04 08:02:38;;;;;;;18.65;10.43;;;12.30;99.90;;;;;;5068845;28;20095;-77
2023/01/04 08:05:06;;;;;;;17.77;10.30;;;12.30;99.90;;;;;;5074635;28;20042;-76
2023/01/04 08:07:34;;;;;;;15.85;9.25;;;12.40;99.90;;;;;;5074377;28;20429;-78
2023/01/04 08:10:02;;;;;;;17.35;9.63;;;12.40;99.90;;;;;;5066306;28;20048;-78
2023/01/04 08:12:29;;;;;;;18.75;10.80;;;12.40;99.90;;;;;;5079801;28;20044;-77
2023/01/04 08:14:57;;;;;;;14.70;9.50;;;12.40;99.90;;;;;;5069673;28;20071;-77
2023/01/04 08:17:24;;;;;;;14.57;8.68;;;12.40;99.90;;;;;;5076935;28;20040;-77
2023/01/04 08:19:52;;;;;;;16.77;11.30;;;12.40;99.90;;;;;;5062684;28;20113;-78
2023/01/04 08:22:20;;;;;;;16.70;9.75;;;12.50;99.90;;;;;;5074355;28;20164;-80
2023/01/04 08:24:47;;;;;;;15.82;10.35;;;12.50;99.90;;;;;;5078398;28;20044;-78
2023/01/04 08:27:15;;;;;;;18.45;10.32;;;12.60;99.90;;;;;;5078012;28;20055;-78
2023/01/04 08:29:42;;;;;;;17.98;11.13;;;12.60;99.90;;;;;;5081182;28;20086;-78
2023/01/04 08:32:10;;;;;;;16.17;10.15;;;12.60;99.90;;;;;;5076590;28;20044;-77
2023/01/04 08:34:37;;;;;;;14.35;9.05;;;12.70;99.90;;;;;;5079457;28;20602;-78
2023/01/04 08:37:05;;;;;;;27.75;13.25;;;12.70;99.90;;;;;;5065504;28;20040;-79
2023/01/04 08:39:34;;;;;;;20.17;12.52;;;12.80;99.90;;;;;;5082294;28;20466;-78
2023/01/04 08:42:02;;;;;;;22.10;12.68;;;12.80;99.90;;;;;;5075102;28;20132;-78
2023/01/04 08:44:37;;;;;;;18.10;10.13;;;12.80;99.90;;;;;;5080796;28;20370;-78
2023/01/04 08:47:05;;;;;;;16.38;10.35;;;12.80;99.90;;;;;;5058103;28;20469;-78
2023/01/04 08:49:33;;;;;;;15.20;10.40;;;12.80;99.90;;;;;;5082646;28;20051;-78
2023/01/04 08:52:00;;;;;;;14.95;9.25;;;12.80;99.90;;;;;;5066685;28;20044;-77
2023/01/04 08:54:28;;;;;;;25.20;9.63;;;12.80;99.90;;;;;;5066960;28;20056;-77
2023/01/04 08:56:56;;;;;;;26.95;10.95;;;12.80;99.90;;;;;;5090502;28;20159;-78
2023/01/04 08:59:23;;;;;;;13.90;9.63;;;12.90;99.90;;;;;;5084425;28;20121;-79
2023/01/04 09:01:51;;;;;;;11.93;9.32;;;12.80;99.90;;;;;;5080946;28;20159;-79
2023/01/04 09:04:19;;;;;;;14.00;8.48;;;12.90;99.90;;;;;;5079109;28;20074;-79
2023/01/04 09:06:46;;;;;;;19.20;10.20;;;12.90;99.90;;;;;;5086479;28;20120;-79
2023/01/04 09:09:14;;;;;;;17.40;10.18;;;12.90;99.90;;;;;;5084582;28;20040;-78
2023/01/04 09:11:42;;;;;;;16.85;9.85;;;13.00;99.90;;;;;;5058796;28;20044;-79
2023/01/04 09:14:12;;;;;;;14.27;8.73;;;13.00;99.90;;;;;;5075578;28;20064;-77
2023/01/04 09:16:40;;;;;;;17.85;10.43;;;13.00;99.90;;;;;;5062795;28;20043;-79
2023/01/04 09:19:08;;;;;;;23.13;11.50;;;13.10;99.90;;;;;;5063085;28;20508;-79
2023/01/04 09:21:35;;;;;;;15.55;10.52;;;13.20;99.90;;;;;;5074555;28;20036;-78
2023/01/04 09:24:03;;;;;;;16.08;9.23;;;13.20;99.90;;;;;;5081097;28;20847;-78
2023/01/04 09:26:31;;;;;;;24.88;11.52;;;13.20;99.90;;;;;;5081526;28;20040;-78
2023/01/04 09:28:59;;;;;;;16.45;10.25;;;13.30;99.90;;;;;;5084661;28;20056;-79
2023/01/04 09:31:28;;;;;;;20.40;9.90;;;13.40;99.90;;;;;;5075150;28;20127;-78
2023/01/04 09:33:56;;;;;;;18.17;10.00;;;13.40;99.90;;;;;;5050796;28;20712;-80
2023/01/04 09:36:41;;;;;;;93.68;27.13;;;13.40;99.90;;;;;;5081050;28;20040;-78
2023/01/04 09:39:08;;;;;;;29.30;13.95;;;13.50;99.90;;;;;;5083898;28;20044;-79
2023/01/04 09:41:48;;;;;;;26.13;12.30;;;13.50;99.90;;;;;;5089403;28;20051;-77
2023/01/04 09:44:48;;;;;;;37.47;12.18;;;13.50;99.90;;;;;;5078491;28;20052;-76
2023/01/04 09:47:43;;;;;;;17.63;9.60;;;13.50;99.90;;;;;;5075327;28;20039;-77
2023/01/04 09:50:26;;;;;;;12.30;8.10;;;13.50;99.90;;;;;;5080258;28;20048;-76
2023/01/04 09:53:01;;;;;;;14.32;7.97;;;13.60;99.90;;;;;;5079685;28;20438;-77
2023/01/04 09:55:44;;;;;;;13.50;8.10;;;13.60;99.90;;;;;;5083166;28;20048;-77
2023/01/04 09:58:38;;;;;;;17.73;8.45;;;13.60;99.90;;;;;;5071375;28;20052;-76
2023/01/04 10:01:19;;;;;;;20.85;10.43;;;13.50;99.90;;;;;;5086494;28;20044;-77
2023/01/04 10:04:01;;;;;;;12.38;8.55;;;13.60;99.90;;;;;;5077486;28;20102;-77
2023/01/04 10:06:29;;;;;;;15.82;9.13;;;13.60;99.90;;;;;;5079129;28;20450;-77
2023/01/04 10:09:03;;;;;;;17.88;10.00;;;13.70;99.90;;;;;;5073902;28;20517;-77
2023/01/04 10:11:39;;;;;;;53.05;15.65;;;13.60;99.90;;;;;;5066260;28;20041;-77
2023/01/04 10:14:21;;;;;;;19.70;11.02;;;13.70;99.90;;;;;;5052927;28;20057;-76
2023/01/04 10:17:26;;;;;;;15.55;10.35;;;13.70;99.90;;;;;;5069727;28;20118;-74
2023/01/04 10:20:38;;;;;;;20.15;14.50;;;13.70;99.90;;;;;;5087472;28;20047;-74
2023/01/04 10:23:32;;;;;;;19.73;11.27;;;13.70;99.90;;;;;;5089587;28;20040;-74
2023/01/04 10:26:14;;;;;;;22.00;10.20;;;13.80;99.90;;;;;;5090979;28;20089;-74
2023/01/04 10:28:48;;;;;;;18.50;11.25;;;13.80;99.90;;;;;;5089364;28;20127;-76
2023/01/04 10:31:36;;;;;;;21.58;11.48;;;13.80;99.90;;;;;;5091055;28;20093;-76
2023/01/04 10:34:24;;;;;;;14.55;9.20;;;13.90;99.90;;;;;;5083634;28;20048;-76
2023/01/04 10:36:57;;;;;;;17.92;9.70;;;13.90;99.90;;;;;;5070799;28;20045;-76
2023/01/04 10:39:32;;;;;;;18.02;10.13;;;14.00;99.90;;;;;;5075150;28;20059;-76
2023/01/04 10:42:17;;;;;;;12.75;8.25;;;14.00;99.90;;;;;;5075475;28;20086;-76
2023/01/04 10:45:07;;;;;;;13.23;9.15;;;14.10;99.90;;;;;;5070110;28;20057;-76
2023/01/04 10:47:41;;;;;;;17.10;8.20;;;14.20;99.90;;;;;;5063427;28;20083;-76
2023/01/04 10:50:20;;;;;;;11.32;8.35;;;14.20;99.90;;;;;;5065728;28;20760;-76
2023/01/04 10:53:00;;;;;;;12.20;8.23;;;14.30;99.90;;;;;;5077938;28;20094;-76
2023/01/04 10:55:35;;;;;;;12.82;7.43;;;14.40;99.90;;;;;;5072654;28;20051;-76
2023/01/04 10:58:11;;;;;;;10.65;6.43;;;14.40;99.90;;;;;;5084931;28;20045;-76
2023/01/04 11:00:53;;;;;;;14.63;7.77;;;14.50;99.90;;;;;;5076256;28;20544;-78
2023/01/04 11:03:32;;;;;;;11.50;7.28;;;14.50;99.90;;;;;;5086603;28;20052;-75
2023/01/04 11:06:24;;;;;;;11.55;6.28;;;14.50;99.90;;;;;;5068040;28;20120;-75
2023/01/04 11:08:58;;;;;;;10.50;7.00;;;14.60;99.90;;;;;;5074983;28;20039;-75
2023/01/04 11:11:39;;;;;;;18.25;6.20;;;14.70;99.90;;;;;;5090136;28;20052;-76
2023/01/04 11:14:06;;;;;;;11.27;6.25;;;14.80;99.90;;;;;;5071934;28;20142;-75
2023/01/04 11:16:34;;;;;;;12.27;6.82;;;14.80;99.90;;;;;;5089559;28;20466;-76
2023/01/04 11:19:03;;;;;;;10.63;6.65;;;14.80;99.90;;;;;;5087062;28;20048;-75
2023/01/04 11:21:39;;;;;;;16.30;6.95;;;14.90;99.90;;;;;;5069672;28;20044;-75
2023/01/04 11:24:10;;;;;;;11.27;7.70;;;15.00;99.90;;;;;;5087536;28;20067;-74
2023/01/04 11:27:02;;;;;;;15.73;6.65;;;15.10;99.90;;;;;;5073503;28;20097;-75
2023/01/04 11:29:39;;;;;;;9.50;5.93;;;15.30;99.90;;;;;;5087399;28;20120;-75
2023/01/04 11:32:44;;;;;;;9.07;5.80;;;15.50;99.90;;;;;;5088021;28;20202;-75
2023/01/04 11:35:12;;;;;;;7.40;4.65;;;15.60;99.90;;;;;;5088542;28;20040;-76
2023/01/04 11:37:40;;;;;;;10.70;6.20;;;15.80;99.90;;;;;;5087828;28;20048;-76
2023/01/04 11:40:17;;;;;;;9.93;5.47;;;16.00;99.90;;;;;;5085866;28;20052;-75
2023/01/04 11:42:47;;;;;;;13.52;5.70;;;16.20;99.90;;;;;;5087661;28;20062;-75
2023/01/04 11:45:23;;;;;;;13.77;7.00;;;16.30;99.90;;;;;;5087809;28;20040;-76
2023/01/04 11:47:59;;;;;;;10.20;5.28;;;16.50;99.90;;;;;;5088570;28;20040;-75
2023/01/04 11:50:39;;;;;;;9.95;6.35;;;16.60;99.90;;;;;;5087442;28;20032;-76
2023/01/04 11:53:25;;;;;;;17.15;5.50;;;16.60;99.90;;;;;;5070325;28;20510;-76
2023/01/04 11:56:12;;;;;;;14.68;5.18;;;16.80;99.90;;;;;;5086896;28;20112;-75
2023/01/04 11:58:42;;;;;;;9.40;4.78;;;17.00;99.90;;;;;;5087051;28;20071;-77
2023/01/04 12:01:24;;;;;;;7.40;4.47;;;17.10;99.90;;;;;;5088432;28;20563;-75
2023/01/04 12:03:52;;;;;;;10.75;4.60;;;17.10;99.90;;;;;;5069965;28;20048;-75
2023/01/04 12:06:39;;;;;;;13.23;4.97;;;17.10;99.90;;;;;;5087802;28;20048;-75
2023/01/04 12:09:15;;;;;;;8.27;4.30;;;17.10;99.90;;;;;;5088369;28;20048;-76
2023/01/04 12:11:59;;;;;;;9.07;4.00;;;17.20;99.90;;;;;;5086644;28;20048;-75
2023/01/04 12:14:35;;;;;;;8.63;5.38;;;17.20;99.90;;;;;;5059765;28;20481;-76
2023/01/04 12:17:22;;;;;;;9.27;6.00;;;17.10;99.90;;;;;;5072893;28;20064;-76
2023/01/04 12:19:53;;;;;;;7.70;5.22;;;17.00;99.90;;;;;;5081389;28;20481;-76
2023/01/04 12:22:21;;;;;;;8.27;4.38;;;17.00;99.90;;;;;;5079010;28;20055;-76
2023/01/04 12:24:49;;;;;;;7.72;4.10;;;16.80;99.90;;;;;;5077819;28;20457;-76
2023/01/04 12:27:20;;;;;;;7.65;4.30;;;16.90;99.90;;;;;;5075199;28;20040;-75
2023/01/04 12:29:58;;;;;;;6.32;4.05;;;17.00;99.90;;;;;;5085227;28;20381;-76
2023/01/04 12:32:26;;;;;;;8.60;5.03;;;17.00;99.90;;;;;;5078265;28;20440;-76
2023/01/04 12:34:54;;;;;;;6.32;4.43;;;17.10;99.90;;;;;;5072349;28;20122;-76
2023/01/04 12:37:37;;;;;;;11.52;5.47;;;17.10;99.90;;;;;;5072731;28;20074;-76
2023/01/04 12:40:42;;;;;;;10.57;6.32;;;17.20;99.90;;;;;;5065532;28;20067;-75
2023/01/04 12:43:16;;;;;;;9.57;4.72;;;17.40;99.90;;;;;;5084810;28;20064;-76
2023/01/04 12:49:02;;;;;;;12.38;5.82;;;17.40;99.90;;;;;;5084670;28;20040;-76
2023/01/04 12:51:24;;;;;;;11.57;5.93;;;17.40;99.90;;;;;;5078465;28;20113;-77
2023/01/04 12:54:04;;;;;;;9.73;5.95;;;17.40;99.90;;;;;;5069209;28;20486;-75
2023/01/04 12:57:09;;;;;;;10.38;4.97;;;17.20;99.90;;;;;;5069805;28;20159;-76
2023/01/04 12:59:51;;;;;;;11.43;4.88;;;17.20;99.90;;;;;;5079703;28;20055;-77
2023/01/04 13:02:24;;;;;;;10.52;4.97;;;17.10;99.90;;;;;;5079520;28;20048;-77
2023/01/04 13:05:01;;;;;;;7.03;5.28;;;17.10;99.90;;;;;;5085689;28;20048;-75
2023/01/04 13:07:55;;;;;;;29.27;7.18;;;17.20;99.90;;;;;;5075816;28;20425;-77
2023/01/04 13:10:46;;;;;;;15.77;5.32;;;17.20;99.90;;;;;;5069937;28;20047;-80
2023/01/04 13:13:32;;;;;;;117.15;21.40;;;17.20;99.90;;;;;;5088182;28;20070;-74
2023/01/04 13:16:18;;;;;;;12.98;6.30;;;17.10;99.90;;;;;;5086845;28;20753;-77
2023/01/04 13:18:51;;;;;;;15.52;9.55;;;17.00;99.90;;;;;;5086767;28;20044;-75
2023/01/04 13:21:40;;;;;;;17.02;6.63;;;16.90;99.90;;;;;;5087088;28;20123;-76
2023/01/04 13:24:17;;;;;;;31.90;10.77;;;16.80;99.90;;;;;;5086262;28;20532;-76
2023/01/04 13:26:49;;;;;;;7.82;5.22;;;16.70;99.90;;;;;;5053517;28;20052;-76
2023/01/04 13:29:25;;;;;;;9.40;6.40;;;16.50;99.90;;;;;;5070082;28;20101;-76
2023/01/04 13:32:01;;;;;;;8.73;5.00;;;16.60;99.90;;;;;;5053533;28;20436;-76
2023/01/04 13:34:31;;;;;;;7.57;5.63;;;16.50;99.90;;;;;;5086427;28;20397;-76
2023/01/04 13:37:06;;;;;;;13.75;6.72;;;16.50;99.90;;;;;;5086114;28;20048;-76
2023/01/04 13:39:45;;;;;;;10.88;5.03;;;16.60;99.90;;;;;;5085518;28;20046;-76
2023/01/04 13:42:28;;;;;;;12.80;7.93;;;16.50;99.90;;;;;;5087010;28;20573;-76
2023/01/04 13:45:08;;;;;;;10.52;6.82;;;16.50;99.90;;;;;;5070879;28;20040;-76
2023/01/04 13:47:46;;;;;;;9.68;6.50;;;16.40;99.90;;;;;;5053928;28;20497;-77